Time;durP1;ratioP1;P1;durP2;ratioP2;P2;SDS_P1;SDS_P2;PMS_P1;PMS_P2;Temp;Humidity;BMP_temperature;BMP_pressure;BME280_temperature;BME280_humidity;BME280_pressure;Samples;Min_cycle;Max_cycle;Signal;HPM_P1;HPM_P2
2023/10/20 00:02:04;;;;;;;7.20;3.50;;;;;;;10.23;100.00;100177.22;109113;1254;60150;-57
2023/10/20 00:04:32;;;;;;;6.70;3.90;;;;;;;10.21;100.00;100174.92;109193;1254;74724;-54
2023/10/20 00:07:00;;;;;;;5.60;3.20;;;;;;;10.18;100.00;100171.75;109201;1253;67390;-55
2023/10/20 00:09:29;;;;;;;6.40;2.50;;;;;;;10.16;100.00;100166.77;109230;1254;72689;-54
2023/10/20 00:11:58;;;;;;;5.40;2.90;;;;;;;10.15;100.00;100167.30;109326;1253;60517;-54
2023/10/20 00:14:26;;;;;;;6.20;2.80;;;;;;;10.12;100.00;100170.77;109324;1253;60070;-57
2023/10/20 00:16:53;;;;;;;6.00;3.20;;;;;;;10.08;100.00;100171.39;109280;1254;74716;-53
2023/10/20 00:19:21;;;;;;;5.00;3.00;;;;;;;10.04;100.00;100175.71;109319;1253;66938;-53
2023/10/20 00:21:51;;;;;;;6.90;3.00;;;;;;;9.98;100.00;100178.61;109263;1253;71116;-54
2023/10/20 00:24:18;;;;;;;5.00;3.10;;;;;;;9.93;100.00;100180.48;109060;1254;222069;-55
2023/10/20 00:26:46;;;;;;;4.60;2.80;;;;;;;9.88;100.00;100178.27;109223;1253;60056;-54
2023/10/20 00:29:14;;;;;;;5.70;2.60;;;;;;;9.84;100.00;100176.17;109251;1253;74720;-54
2023/10/20 00:31:42;;;;;;;5.10;2.80;;;;;;;9.79;100.00;100175.64;109323;1253;66941;-54
2023/10/20 00:34:11;;;;;;;5.40;3.00;;;;;;;9.75;100.00;100170.56;109283;1253;71247;-55
2023/10/20 00:36:38;;;;;;;5.90;2.60;;;;;;;9.71;100.00;100166.73;109249;1253;60861;-55
2023/10/20 00:39:06;;;;;;;5.80;3.30;;;;;;;9.68;100.00;100166.59;109357;1253;58844;-54
2023/10/20 00:41:35;;;;;;;5.20;2.60;;;;;;;9.66;100.00;100164.39;109299;1253;73359;-53
2023/10/20 00:44:03;;;;;;;4.50;3.00;;;;;;;9.64;100.00;100165.29;109237;1253;67077;-54
2023/10/20 00:46:31;;;;;;;5.10;3.00;;;;;;;9.61;100.00;100164.73;109153;1253;70732;-56
2023/10/20 00:48:59;;;;;;;5.70;2.90;;;;;;;9.58;100.00;100165.27;109200;1255;61838;-54
2023/10/20 00:51:26;;;;;;;5.00;2.70;;;;;;;9.54;100.00;100169.55;109025;1254;60170;-54
2023/10/20 00:53:58;;;;;;;5.70;2.60;;;;;;;9.51;100.00;100166.27;109181;1254;74823;-54
2023/10/20 00:56:25;;;;;;;6.00;3.30;;;;;;;9.50;100.00;100167.57;109047;1254;65803;-55
2023/10/20 00:58:53;;;;;;;6.40;2.90;;;;;;;9.48;100.00;100165.02;109158;1254;71426;-54
2023/10/20 01:01:21;;;;;;;5.20;2.70;;;;;;;9.48;100.00;100162.83;109214;1254;60771;-53
2023/10/20 01:03:49;;;;;;;6.80;3.50;;;;;;;9.49;100.00;100160.63;109189;1254;60496;-53
2023/10/20 01:06:16;;;;;;;5.90;3.40;;;;;;;9.49;100.00;100151.70;109205;1254;74759;-56
2023/10/20 01:08:44;;;;;;;5.80;3.10;;;;;;;9.50;100.00;100157.20;109200;1253;66802;-54
2023/10/20 01:11:12;;;;;;;6.20;3.20;;;;;;;9.50;100.00;100158.19;109223;1254;72788;-54
2023/10/20 01:13:39;;;;;;;5.90;2.90;;;;;;;9.50;100.00;100155.08;109194;1254;61651;-54
2023/10/20 01:16:07;;;;;;;5.00;2.50;;;;;;;9.52;100.00;100155.31;109277;1253;59282;-54
2023/10/20 01:18:35;;;;;;;5.00;2.80;;;;;;;9.55;100.00;100152.52;109227;1254;75256;-54
2023/10/20 01:21:04;;;;;;;5.20;2.90;;;;;;;9.56;100.00;100144.92;109244;1254;67089;-53
2023/10/20 01:23:31;;;;;;;3.70;2.50;;;;;;;9.57;100.00;100142.40;109208;1254;71476;-54
2023/10/20 01:25:59;;;;;;;5.60;2.60;;;;;;;9.56;100.00;100141.56;109220;1254;60781;-54
2023/10/20 01:28:27;;;;;;;4.80;2.50;;;;;;;9.57;100.00;100135.60;109264;1253;58898;-56
2023/10/20 01:30:56;;;;;;;4.60;2.50;;;;;;;9.56;100.00;100132.39;109322;1252;74667;-54
2023/10/20 01:33:25;;;;;;;4.50;2.80;;;;;;;9.56;100.00;100133.11;109353;1252;67134;-54
2023/10/20 01:35:53;;;;;;;4.40;2.90;;;;;;;9.55;100.00;100131.78;109304;1252;72747;-53
2023/10/20 01:38:21;;;;;;;8.00;2.80;;;;;;;9.55;100.00;100129.19;109228;1253;61747;-54
2023/10/20 01:40:49;;;;;;;6.00;2.90;;;;;;;9.57;100.00;100130.43;109340;1252;58945;-53
2023/10/20 01:43:17;;;;;;;5.40;2.70;;;;;;;9.58;100.00;100130.40;109292;1253;74776;-54
2023/10/20 01:45:45;;;;;;;6.40;2.70;;;;;;;9.60;100.00;100131.12;109292;1253;64811;-54
2023/10/20 01:48:13;;;;;;;6.70;3.00;;;;;;;9.60;100.00;100124.40;109156;1253;71469;-54
2023/10/20 01:50:40;;;;;;;5.60;2.70;;;;;;;9.60;100.00;100123.91;109315;1252;61744;-54
2023/10/20 01:53:08;;;;;;;6.70;2.90;;;;;;;9.62;100.00;100117.13;109354;1252;60018;-55
2023/10/20 01:55:39;;;;;;;5.60;2.80;;;;;;;9.64;100.00;100115.88;109380;1252;74776;-55
2023/10/20 01:58:07;;;;;;;4.80;3.10;;;;;;;9.64;100.00;100112.36;109201;1253;66977;-55
2023/10/20 02:00:35;;;;;;;8.30;3.10;;;;;;;9.64;100.00;100110.67;109203;1253;72744;-54
2023/10/20 02:03:03;;;;;;;4.50;2.60;;;;;;;9.64;100.00;100107.71;109315;1252;61683;-54
2023/10/20 02:05:31;;;;;;;7.90;2.90;;;;;;;9.64;100.00;100106.59;109346;1252;60048;-53
2023/10/20 02:07:59;;;;;;;5.10;2.70;;;;;;;9.65;100.00;100106.91;109451;1251;73399;-55
2023/10/20 02:10:27;;;;;;;4.90;3.00;;;;;;;9.65;100.00;100103.55;109462;1251;67395;-54
2023/10/20 02:12:55;;;;;;;5.70;3.00;;;;;;;9.66;100.00;100104.82;109436;1253;72773;-54
2023/10/20 02:15:22;;;;;;;6.00;2.70;;;;;;;9.67;100.00;100095.06;109453;1251;60766;-54
2023/10/20 02:17:50;;;;;;;4.00;2.40;;;;;;;9.68;100.00;100091.87;109470;1251;59481;-54
2023/10/20 02:20:22;;;;;;;5.70;2.80;;;;;;;9.69;100.00;100090.40;109364;1253;74740;-54
2023/10/20 02:22:50;;;;;;;6.70;3.00;;;;;;;9.70;100.00;100087.21;109413;1252;66343;-54
2023/10/20 02:25:19;;;;;;;6.00;3.10;;;;;;;9.71;100.00;100090.75;109316;1252;72773;-54
2023/10/20 02:27:47;;;;;;;5.20;3.10;;;;;;;9.69;100.00;100082.08;109331;1252;61756;-55
2023/10/20 02:30:15;;;;;;;4.00;2.40;;;;;;;9.69;100.00;100077.42;109163;1255;59322;-55
2023/10/20 02:32:43;;;;;;;6.30;2.70;;;;;;;9.69;100.00;100078.50;109309;1253;73307;-54
2023/10/20 02:35:12;;;;;;;4.80;2.40;;;;;;;9.68;100.00;100073.57;109328;1253;65541;-54
2023/10/20 02:37:40;;;;;;;5.60;2.40;;;;;;;9.66;100.00;100073.03;109322;1253;71395;-54
2023/10/20 02:40:08;;;;;;;5.90;2.60;;;;;;;9.66;100.00;100073.48;109252;1253;60758;-54
2023/10/20 02:42:35;;;;;;;4.60;2.40;;;;;;;9.64;100.00;100073.61;109272;1253;60063;-54
2023/10/20 02:45:09;;;;;;;5.30;2.30;;;;;;;9.63;100.00;100076.20;109313;1252;74822;-54
2023/10/20 02:47:37;;;;;;;9.70;4.00;;;;;;;9.64;100.00;100071.48;109381;1252;66898;-54
2023/10/20 02:50:06;;;;;;;4.60;2.70;;;;;;;9.64;100.00;100069.67;109205;1252;72727;-55
2023/10/20 02:52:34;;;;;;;5.60;2.60;;;;;;;9.65;100.00;100067.63;109159;1253;60199;-54
2023/10/20 02:55:02;;;;;;;5.50;2.90;;;;;;;9.66;100.00;100065.59;109291;1253;58871;-54
2023/10/20 02:57:29;;;;;;;5.10;2.60;;;;;;;9.67;100.00;100066.70;109344;1252;74754;-54
2023/10/20 02:59:57;;;;;;;5.20;2.80;;;;;;;9.68;100.00;100068.16;109338;1252;67392;-56
2023/10/20 03:02:27;;;;;;;5.80;3.50;;;;;;;9.68;100.00;100059.11;109248;1253;72105;-53
2023/10/20 03:04:55;;;;;;;7.20;3.50;;;;;;;9.68;100.00;100052.23;109311;1253;60719;-54
2023/10/20 03:07:27;;;;;;;5.30;2.90;;;;;;;9.68;100.00;100048.90;109301;1253;59307;-54
2023/10/20 03:09:55;;;;;;;5.60;2.70;;;;;;;9.67;100.00;100041.58;109298;1253;74765;-55
2023/10/20 03:12:24;;;;;;;3.90;2.30;;;;;;;9.65;100.00;100043.66;109348;1253;66373;-54
2023/10/20 03:14:51;;;;;;;4.60;2.90;;;;;;;9.63;100.00;100041.13;109272;1253;72898;-54
2023/10/20 03:17:19;;;;;;;6.10;2.70;;;;;;;9.63;100.00;100043.64;109287;1253;60146;-54
2023/10/20 03:19:48;;;;;;;6.10;2.80;;;;;;;9.61;100.00;100042.40;109365;1252;60243;-54
2023/10/20 03:22:15;;;;;;;5.50;2.60;;;;;;;9.61;100.00;100040.53;109240;1253;73436;-55
2023/10/20 03:24:43;;;;;;;5.20;2.50;;;;;;;9.61;100.00;100041.20;109298;1253;67156;-54
2023/10/20 03:27:10;;;;;;;5.50;3.00;;;;;;;9.62;100.00;100045.14;109266;1254;70430;-54
2023/10/20 03:29:38;;;;;;;5.60;3.00;;;;;;;9.61;100.00;100041.73;109284;1253;59290;-55
2023/10/20 03:32:06;;;;;;;6.70;3.10;;;;;;;9.61;100.00;100042.64;109246;1253;60495;-54
2023/10/20 03:34:34;;;;;;;4.90;3.10;;;;;;;9.63;100.00;100046.39;109315;1253;74678;-53
2023/10/20 03:37:02;;;;;;;4.50;2.70;;;;;;;9.66;100.00;100045.17;109270;1253;65976;-54
2023/10/20 03:39:32;;;;;;;7.40;3.00;;;;;;;9.67;100.00;100042.25;109197;1253;72732;-54
2023/10/20 03:42:02;;;;;;;6.40;3.60;;;;;;;9.68;100.00;100039.49;109260;1252;60206;-55
2023/10/20 03:44:30;;;;;;;4.90;2.60;;;;;;;9.69;100.00;100034.02;109283;1252;60121;-54
2023/10/20 03:46:59;;;;;;;5.40;3.40;;;;;;;9.71;100.00;100037.98;109209;1253;74629;-55
2023/10/20 03:49:31;;;;;;;5.80;3.10;;;;;;;9.73;100.00;100035.63;109293;1254;67100;-54
2023/10/20 03:52:00;;;;;;;7.80;3.80;;;;;;;9.76;100.00;100026.73;109246;1254;71916;-54
2023/10/20 03:54:31;;;;;;;6.10;3.50;;;;;;;9.79;100.00;100016.52;109251;1254;60568;-54
2023/10/20 03:56:59;;;;;;;6.30;4.10;;;;;;;9.82;100.00;100018.50;109229;1253;59067;-54
2023/10/20 03:59:26;;;;;;;6.00;3.70;;;;;;;9.82;100.00;100013.35;109326;1253;73466;-54
2023/10/20 04:01:55;;;;;;;4.90;2.90;;;;;;;9.85;100.00;100010.57;109349;1252;65626;-54
2023/10/20 04:04:22;;;;;;;5.30;3.50;;;;;;;9.88;100.00;100004.91;109320;1252;71462;-54
2023/10/20 04:06:50;;;;;;;7.60;3.80;;;;;;;9.89;100.00;100005.73;109334;1253;60122;-54
2023/10/20 04:09:18;;;;;;;7.90;4.00;;;;;;;9.90;100.00;100011.16;109326;1253;60048;-54
2023/10/20 04:11:45;;;;;;;7.90;4.00;;;;;;;9.93;100.00;100013.81;109259;1253;74756;-56
2023/10/20 04:14:13;;;;;;;7.60;3.60;;;;;;;9.96;100.00;100008.95;109366;1253;67829;-53
2023/10/20 04:16:42;;;;;;;5.00;3.20;;;;;;;9.98;100.00;100009.55;109333;1253;71883;-54
2023/10/20 04:19:09;;;;;;;4.90;2.80;;;;;;;10.01;100.00;100006.61;109337;1253;58909;-54
2023/10/20 04:21:39;;;;;;;5.20;3.10;;;;;;;10.03;100.00;100012.08;109424;1252;59347;-54
2023/10/20 04:24:10;;;;;;;6.30;3.60;;;;;;;10.07;100.00;100014.11;109345;1253;74746;-54
2023/10/20 04:26:41;;;;;;;6.20;3.30;;;;;;;10.10;100.00;100015.60;109382;1252;65521;-54
2023/10/20 04:54:07;;;;;;;5.20;3.40;;;;;;;10.35;100.00;100001.50;109426;1252;67600;-54
2023/10/20 04:56:39;;;;;;;4.80;2.80;;;;;;;10.37;100.00;100003.63;109331;1252;73180;-54
2023/10/20 04:59:10;;;;;;;7.80;3.30;;;;;;;10.39;100.00;100000.02;109433;1253;60531;-54
2023/10/20 05:01:41;;;;;;;5.40;2.90;;;;;;;10.42;100.00;99996.36;109267;1252;60228;-55
2023/10/20 05:04:15;;;;;;;7.00;3.40;;;;;;;10.44;100.00;99993.36;109432;1252;74780;-54
2023/10/20 05:06:44;;;;;;;5.20;3.20;;;;;;;10.47;100.00;99991.67;109426;1252;66117;-54
2023/10/20 05:09:15;;;;;;;5.60;3.40;;;;;;;10.48;100.00;99985.22;109382;1252;72740;-54
2023/10/20 05:11:42;;;;;;;6.30;3.30;;;;;;;10.51;100.00;99990.73;109326;1253;61829;-54
2023/10/20 05:14:10;;;;;;;6.50;3.50;;;;;;;10.53;100.00;99992.27;109465;1252;59064;-54
2023/10/20 05:16:38;;;;;;;6.40;3.10;;;;;;;10.57;100.00;99986.64;109439;1253;74743;-55
2023/10/20 05:19:05;;;;;;;6.20;3.70;;;;;;;10.60;100.00;99986.59;109402;1252;65055;-54
2023/10/20 05:21:33;;;;;;;5.50;3.30;;;;;;;10.63;100.00;99985.05;109363;1252;73113;-54
2023/10/20 05:24:03;;;;;;;5.60;3.70;;;;;;;10.66;100.00;99986.39;109361;1253;60376;-54
2023/10/20 05:26:31;;;;;;;5.50;3.40;;;;;;;10.67;100.00;99985.54;109401;1252;58938;-55
2023/10/20 05:28:59;;;;;;;5.40;3.60;;;;;;;10.67;100.00;99984.63;109410;1252;74815;-56
2023/10/20 05:31:29;;;;;;;6.20;3.20;;;;;;;10.68;100.00;99987.68;109395;1253;67571;-55
2023/10/20 05:33:57;;;;;;;5.50;3.40;;;;;;;10.67;100.00;99984.79;109484;1253;72753;-54
2023/10/20 05:36:25;;;;;;;8.20;4.00;;;;;;;10.67;100.00;99988.07;109274;1254;58968;-54
2023/10/20 05:38:53;;;;;;;5.80;3.60;;;;;;;10.67;100.00;99983.02;109429;1252;59401;-55
2023/10/20 05:41:20;;;;;;;5.70;3.20;;;;;;;10.67;100.00;99979.41;109277;1251;74781;-55
2023/10/20 05:43:48;;;;;;;5.90;3.30;;;;;;;10.69;100.00;99979.39;109306;1252;65768;-54
2023/10/20 05:46:17;;;;;;;5.80;3.40;;;;;;;10.70;100.00;99975.59;109334;1253;71440;-55
2023/10/20 05:48:46;;;;;;;7.20;3.80;;;;;;;10.70;100.00;99977.42;109258;1253;60202;-54
2023/10/20 05:51:14;;;;;;;6.90;3.70;;;;;;;10.71;100.00;99977.84;109224;1253;60125;-57
2023/10/20 05:53:41;;;;;;;5.90;3.50;;;;;;;10.73;100.00;99979.77;109227;1253;73433;-56
2023/10/20 05:56:09;;;;;;;7.50;3.30;;;;;;;10.77;100.00;99971.82;109214;1252;67119;-53
2023/10/20 05:58:38;;;;;;;7.20;3.70;;;;;;;10.81;100.00;99976.62;109202;1253;71461;-56
2023/10/20 06:01:06;;;;;;;6.70;3.90;;;;;;;10.86;100.00;99974.61;109149;1253;59531;-56
2023/10/20 06:03:34;;;;;;;10.50;3.80;;;;;;;10.90;100.00;99966.60;109175;1253;60609;-56
2023/10/20 06:06:03;;;;;;;4.80;3.40;;;;;;;10.92;100.00;99962.77;109215;1253;74818;-55
2023/10/20 06:08:31;;;;;;;6.50;3.80;;;;;;;10.95;100.00;99957.00;109288;1253;67417;-56
2023/10/20 06:11:03;;;;;;;4.50;2.80;;;;;;;10.97;100.00;99963.48;109291;1253;72780;-57
2023/10/20 06:13:35;;;;;;;6.20;3.30;;;;;;;11.02;100.00;99957.59;109404;1253;59043;-56
2023/10/20 06:16:10;;;;;;;6.40;3.70;;;;;;;11.05;100.00;99958.17;109390;1253;58864;-55
2023/10/20 06:18:40;;;;;;;6.50;3.60;;;;;;;11.09;100.00;99959.60;109414;1252;73349;-57
2023/10/20 06:21:13;;;;;;;6.40;3.70;;;;;;;11.15;100.00;99969.63;109448;1252;67578;-55
2023/10/20 06:23:41;;;;;;;7.20;3.40;;;;;;;11.22;100.00;99973.63;109366;1252;71758;-56
2023/10/20 06:26:08;;;;;;;7.80;3.90;;;;;;;11.27;100.00;99978.67;109391;1252;60651;-55
2023/10/20 06:28:36;;;;;;;6.90;3.40;;;;;;;11.33;100.00;99979.17;109409;1252;60086;-58
2023/10/20 06:33:58;;;;;;;7.70;3.30;;;;;;;11.55;100.00;99962.79;109383;1252;65628;-55
2023/10/20 06:36:27;;;;;;;7.30;3.60;;;;;;;11.66;100.00;99957.84;109318;1252;71488;-55
2023/10/20 06:38:54;;;;;;;6.50;3.20;;;;;;;11.75;100.00;99950.99;109293;1252;60104;-55
2023/10/20 06:41:22;;;;;;;7.20;3.80;;;;;;;11.81;100.00;99941.48;109396;1252;58898;-56
2023/10/20 06:43:50;;;;;;;8.60;3.80;;;;;;;11.88;100.00;99941.09;109365;1252;74719;-55
2023/10/20 06:46:21;;;;;;;6.70;3.50;;;;;;;11.98;100.00;99934.83;109322;1252;67228;-56
2023/10/20 06:48:49;;;;;;;6.80;3.80;;;;;;;12.08;100.00;99930.20;109322;1252;72560;-53
2023/10/20 06:51:17;;;;;;;5.10;3.00;;;;;;;12.20;100.00;99923.05;109312;1252;58902;-55
2023/10/20 06:53:44;;;;;;;8.20;4.50;;;;;;;12.27;100.00;99905.69;109425;1252;58949;-56
2023/10/20 06:56:12;;;;;;;9.20;4.50;;;;;;;12.32;100.00;99898.92;109382;1253;74685;-55
2023/10/20 06:58:43;;;;;;;8.20;4.10;;;;;;;12.37;100.00;99896.34;109422;1252;67055;-55
2023/10/20 07:01:11;;;;;;;9.80;5.70;;;;;;;12.45;100.00;99898.99;109284;1252;71469;-55
2023/10/20 07:03:39;;;;;;;11.60;4.70;;;;;;;12.50;100.00;99897.25;109373;1253;61818;-58
2023/10/20 07:06:11;;;;;;;5.30;3.40;;;;;;;12.53;100.00;99891.29;109202;1253;58954;-55
2023/10/20 07:08:39;;;;;;;6.60;3.60;;;;;;;12.59;100.00;99893.36;109322;1252;73486;-55
2023/10/20 07:11:07;;;;;;;5.20;2.80;;;;;;;12.66;100.00;99891.30;109385;1252;67026;-56
2023/10/20 07:13:34;;;;;;;6.80;3.40;;;;;;;12.76;100.00;99884.23;109400;1252;72729;-58
2023/10/20 07:16:02;;;;;;;9.30;3.70;;;;;;;12.83;100.00;99879.77;109367;1253;60465;-53
2023/10/20 07:18:30;;;;;;;6.30;3.00;;;;;;;12.91;100.00;99871.39;109460;1252;58904;-54
2023/10/20 07:20:57;;;;;;;7.40;3.50;;;;;;;12.99;100.00;99870.10;109410;1252;73537;-54
2023/10/20 07:23:26;;;;;;;11.10;5.50;;;;;;;13.04;100.00;99862.02;109445;1252;66892;-54
2023/10/20 07:25:53;;;;;;;8.00;4.10;;;;;;;13.05;100.00;99850.36;109245;1253;72847;-55
2023/10/20 07:28:21;;;;;;;6.00;3.00;;;;;;;13.07;100.00;99852.06;109453;1254;61799;-54
2023/10/20 07:30:50;;;;;;;6.20;3.70;;;;;;;13.12;100.00;99855.70;109420;1252;60116;-54
2023/10/20 07:33:18;;;;;;;8.50;3.60;;;;;;;13.17;100.00;99854.91;109425;1253;75144;-54
2023/10/20 07:35:45;;;;;;;7.80;3.80;;;;;;;13.20;100.00;99845.44;109329;1252;66061;-54
2023/10/20 07:38:13;;;;;;;7.90;3.60;;;;;;;13.22;100.00;99843.95;109301;1252;73237;-54
2023/10/20 07:40:41;;;;;;;7.20;4.20;;;;;;;13.22;100.00;99838.88;109402;1253;60499;-56
2023/10/20 07:43:08;;;;;;;7.70;4.90;;;;;;;13.23;100.00;99836.16;109417;1252;62286;-54
2023/10/20 07:45:40;;;;;;;8.40;3.80;;;;;;;13.27;100.00;99828.11;109288;1253;76775;-55
2023/10/20 07:48:11;;;;;;;7.40;4.20;;;;;;;13.31;100.00;99824.47;109346;1253;69204;-54
2023/10/20 07:50:39;;;;;;;7.90;4.30;;;;;;;13.35;100.00;99816.46;109394;1253;75057;-54
2023/10/20 07:53:10;;;;;;;6.00;3.20;;;;;;;13.41;100.00;99811.08;109297;1252;60102;-55
2023/10/20 07:55:37;;;;;;;5.90;3.00;;;;;;;13.47;100.00;99813.00;109427;1252;59377;-54
2023/10/20 07:58:08;;;;;;;6.60;3.80;;;;;;;13.55;100.00;99810.96;109286;1252;73460;-54
2023/10/20 08:00:36;;;;;;;4.80;2.30;;;;;;;13.64;100.00;99809.84;109340;1252;67878;-54
2023/10/20 08:03:04;;;;;;;5.00;2.00;;;;;;;13.70;100.00;99798.77;109380;1252;71263;-54
2023/10/20 08:05:35;;;;;;;4.70;2.30;;;;;;;13.77;100.00;99790.88;109433;1252;61175;-54
2023/10/20 08:08:04;;;;;;;6.20;2.20;;;;;;;13.90;100.00;99786.36;109449;1252;58932;-54
2023/10/20 08:10:35;;;;;;;4.50;2.10;;;;;;;14.05;100.00;99783.24;109449;1252;76690;-54
2023/10/20 08:13:02;;;;;;;5.20;2.70;;;;;;;14.23;100.00;99782.16;109461;1252;67401;-55
2023/10/20 08:15:35;;;;;;;5.80;2.90;;;;;;;14.47;100.00;99779.21;109452;1252;73776;-54
2023/10/20 08:18:03;;;;;;;6.70;3.20;;;;;;;14.69;100.00;99763.16;109430;1252;60480;-54
2023/10/20 08:20:31;;;;;;;3.90;2.00;;;;;;;14.85;100.00;99764.38;109447;1252;59467;-55
2023/10/20 08:23:00;;;;;;;4.80;2.30;;;;;;;14.93;100.00;99758.59;109496;1252;74755;-54
2023/10/20 08:25:27;;;;;;;6.00;2.70;;;;;;;14.96;100.00;99749.05;109466;1253;66151;-54
2023/10/20 08:27:55;;;;;;;4.50;2.40;;;;;;;14.95;100.00;99743.94;109361;1256;75498;-56
2023/10/20 08:30:22;;;;;;;5.30;2.30;;;;;;;14.90;100.00;99747.07;109385;1253;59088;-54
2023/10/20 08:32:50;;;;;;;5.00;2.40;;;;;;;14.84;100.00;99740.36;109328;1252;60105;-54
2023/10/20 08:35:18;;;;;;;5.30;2.30;;;;;;;14.83;100.00;99741.27;109325;1252;74775;-55
2023/10/20 08:37:45;;;;;;;4.60;2.40;;;;;;;14.88;100.00;99738.67;109304;1253;69127;-54
2023/10/20 08:40:13;;;;;;;5.40;1.80;;;;;;;15.00;100.00;99740.39;109199;1253;70966;-55
2023/10/20 08:42:41;;;;;;;4.10;2.00;;;;;;;15.12;100.00;99729.14;109178;1253;60179;-55
2023/10/20 08:45:11;;;;;;;5.00;2.40;;;;;;;15.24;100.00;99715.11;109295;1253;58872;-55
2023/10/20 08:47:42;;;;;;;3.80;1.90;;;;;;;15.30;100.00;99704.33;109393;1252;74722;-54
2023/10/20 08:50:11;;;;;;;4.70;1.90;;;;;;;15.37;100.00;99708.62;109393;1253;68766;-55
2023/10/20 08:52:40;;;;;;;3.80;1.80;;;;;;;15.45;100.00;99710.95;109094;1253;72734;-54
2023/10/20 08:55:07;;;;;;;6.50;2.30;;;;;;;15.51;100.00;99709.67;109432;1253;60430;-54
2023/10/20 08:57:35;;;;;;;4.60;1.90;;;;;;;15.54;100.00;99705.96;109455;1252;60001;-54
2023/10/20 09:00:03;;;;;;;5.80;2.30;;;;;;;15.57;100.00;99702.30;109291;1253;74942;-55
2023/10/20 09:02:38;;;;;;;3.40;1.80;;;;;;;15.66;100.00;99702.25;109491;1253;65713;-55
2023/10/20 09:05:06;;;;;;;3.70;1.80;;;;;;;15.71;100.00;99700.17;109291;1253;74985;-55
2023/10/20 09:07:34;;;;;;;3.50;1.50;;;;;;;15.71;100.00;99696.91;109240;1253;60400;-57
2023/10/20 09:10:02;;;;;;;4.80;2.20;;;;;;;15.70;100.00;99692.11;109438;1252;62033;-55
2023/10/20 09:12:31;;;;;;;3.90;1.90;;;;;;;15.72;100.00;99687.75;109417;1253;75976;-55
2023/10/20 09:14:58;;;;;;;3.80;1.60;;;;;;;15.77;100.00;99682.27;109209;1253;65493;-55
2023/10/20 09:17:26;;;;;;;4.40;1.90;;;;;;;15.83;100.00;99677.45;109416;1256;75430;-55
2023/10/20 09:20:11;;;;;;;4.50;1.50;;;;;;;15.87;100.00;99676.33;109452;1252;60617;-55
2023/10/20 09:22:39;;;;;;;3.60;1.90;;;;;;;15.90;100.00;99679.33;109386;1252;59059;-55
2023/10/20 09:25:10;;;;;;;4.50;2.10;;;;;;;15.92;100.00;99667.02;109418;1252;74698;-55
2023/10/20 09:27:38;;;;;;;3.40;1.80;;;;;;;15.91;100.00;99654.98;109457;1252;67892;-56
2023/10/20 09:30:11;;;;;;;4.30;1.90;;;;;;;15.91;100.00;99650.16;109370;1252;72990;-55
2023/10/20 09:32:38;;;;;;;;;;;;;;;15.91;100.00;99646.77;109462;1252;61150;-55
2023/10/20 09:35:06;;;;;;;4.30;1.70;;;;;;;15.95;100.00;99650.94;109297;1254;60938;-59
2023/10/20 09:37:37;;;;;;;7.70;2.20;;;;;;;16.01;100.00;99647.29;109443;1253;73136;-55
2023/10/20 09:40:06;;;;;;;4.90;2.40;;;;;;;16.09;100.00;99631.23;109409;1253;67150;-55
2023/10/20 09:42:52;;;;;;;5.50;2.40;;;;;;;16.16;100.00;99631.73;109414;1252;72864;-55
2023/10/20 09:45:29;;;;;;;5.10;1.70;;;;;;;16.23;100.00;99627.93;109302;1255;61589;-55
2023/10/20 09:47:57;;;;;;;5.90;2.50;;;;;;;16.27;100.00;99626.10;109418;1253;63247;-54
2023/10/20 09:50:25;;;;;;;5.70;2.50;;;;;;;16.31;100.00;99623.29;109185;1253;74901;-58
2023/10/20 09:52:53;;;;;;;5.70;2.10;;;;;;;16.35;100.00;99621.98;109350;1253;65211;-55
2023/10/20 09:55:21;;;;;;;4.80;2.50;;;;;;;16.38;100.00;99616.30;109250;1253;74877;-54
2023/10/20 09:57:48;;;;;;;5.20;2.30;;;;;;;16.41;100.00;99610.97;109434;1254;62799;-55
2023/10/20 10:00:28;;;;;;;7.10;2.30;;;;;;;16.46;100.00;99611.13;109327;1253;61975;-55
2023/10/20 10:02:59;;;;;;;5.60;2.70;;;;;;;16.56;100.00;99600.55;109477;1252;76864;-55
2023/10/20 10:05:27;;;;;;;5.80;2.60;;;;;;;16.68;100.00;99603.43;109350;1252;68228;-54
2023/10/20 10:08:05;;;;;;;8.30;3.10;;;;;;;16.80;100.00;99601.66;109398;1253;71411;-55
2023/10/20 10:10:35;;;;;;;5.10;2.60;;;;;;;16.93;100.00;99593.20;109352;1253;59027;-55
2023/10/20 10:13:05;;;;;;;6.70;3.40;;;;;;;17.07;100.00;99587.63;109458;1252;62335;-55
2023/10/20 10:15:43;;;;;;;4.90;2.30;;;;;;;17.19;100.00;99580.63;109427;1252;74739;-55
2023/10/20 10:18:13;;;;;;;5.10;2.30;;;;;;;17.31;100.00;99574.88;109337;1254;69042;-55
2023/10/20 10:20:42;;;;;;;4.80;2.20;;;;;;;17.43;100.00;99573.20;109422;1252;73092;-55
2023/10/20 10:23:21;;;;;;;3.50;1.90;;;;;;;17.56;100.00;99564.60;109319;1252;60167;-55
2023/10/20 10:25:49;;;;;;;16.70;9.90;;;;;;;17.70;100.00;99564.52;109329;1253;62202;-55
2023/10/20 10:28:18;;;;;;;8.30;2.60;;;;;;;17.83;100.00;99552.13;109381;1253;73505;-57
2023/10/20 10:30:50;;;;;;;12.30;6.80;;;;;;;17.92;100.00;99551.86;109432;1252;65724;-55
2023/10/20 10:33:24;;;;;;;5.60;2.80;;;;;;;18.02;100.00;99552.30;109312;1252;72728;-55
2023/10/20 10:36:03;;;;;;;7.70;3.30;;;;;;;18.10;100.00;99551.98;109302;1252;58933;-56
2023/10/20 10:38:41;;;;;;;10.00;4.50;;;;;;;18.16;100.00;99547.61;109306;1252;60038;-55
2023/10/20 10:41:09;;;;;;;6.40;3.40;;;;;;;18.19;100.00;99553.17;109271;1252;76724;-55
2023/10/20 10:43:37;;;;;;;13.90;8.10;;;;;;;18.20;100.00;99554.19;109401;1252;68552;-54
2023/10/20 10:46:05;;;;;;;6.40;2.80;;;;;;;18.26;100.00;99556.98;109409;1253;72606;-55
2023/10/20 10:48:35;;;;;;;5.00;2.60;;;;;;;18.33;100.00;99557.93;109484;1253;61630;-55
2023/10/20 10:51:05;;;;;;;5.90;3.10;;;;;;;18.39;100.00;99556.52;109406;1253;61504;-55
2023/10/20 10:53:33;;;;;;;14.20;8.40;;;;;;;18.45;100.00;99555.50;109423;1252;74827;-56
2023/10/20 10:56:01;;;;;;;11.00;5.50;;;;;;;18.49;100.00;99550.52;109373;1252;65617;-55
2023/10/20 10:58:30;;;;;;;6.60;2.90;;;;;;;18.51;100.00;99543.14;109402;1253;75034;-55
2023/10/20 11:00:58;;;;;;;4.90;2.00;;;;;;;18.51;100.00;99555.65;109303;1253;61550;-57
2023/10/20 11:03:26;;;;;;;7.00;2.70;;;;;;;18.48;100.00;99559.80;109401;1252;60071;-58
2023/10/20 11:05:54;;;;;;;6.70;4.00;;;;;;;18.43;100.00;99553.64;109223;1253;77001;-56
2023/10/20 11:08:22;;;;;;;4.80;2.00;;;;;;;18.37;100.00;99558.23;109358;1252;69108;-56
2023/10/20 11:10:50;;;;;;;5.10;2.70;;;;;;;18.30;100.00;99552.32;109336;1253;74852;-56
2023/10/20 11:13:20;;;;;;;5.40;2.30;;;;;;;18.25;100.00;99552.02;109434;1252;61207;-57
2023/10/20 11:15:49;;;;;;;7.00;1.80;;;;;;;18.20;100.00;99545.52;109428;1253;60811;-57
2023/10/20 11:18:20;;;;;;;4.50;1.90;;;;;;;18.18;100.00;99539.45;109445;1253;75702;-57
2023/10/20 11:20:49;;;;;;;;;;;;;;;18.17;100.00;99540.65;109419;1253;69406;-57
2023/10/20 11:23:30;;;;;;;4.80;2.90;;;;;;;18.20;100.00;99535.14;109272;1253;71474;-57
2023/10/20 11:25:58;;;;;;;4.20;1.50;;;;;;;18.26;100.00;99527.22;109423;1252;60133;-56
2023/10/20 11:28:26;;;;;;;7.90;2.60;;;;;;;18.33;100.00;99510.13;109437;1256;62849;-57
2023/10/20 11:30:57;;;;;;;5.80;2.40;;;;;;;18.40;100.00;99511.08;109427;1253;75761;-56
2023/10/20 11:33:24;;;;;;;6.40;2.60;;;;;;;18.47;100.00;99510.55;109377;1256;67375;-57
2023/10/20 11:35:53;;;;;;;3.80;1.70;;;;;;;18.51;100.00;99515.13;109325;1253;72737;-57
2023/10/20 11:38:21;;;;;;;3.20;1.70;;;;;;;18.50;100.00;99511.99;109403;1253;59493;-57
2023/10/20 11:40:49;;;;;;;5.30;2.20;;;;;;;18.46;100.00;99511.23;109458;1252;63040;-57
2023/10/20 11:43:17;;;;;;;6.10;2.90;;;;;;;18.44;100.00;99511.85;109480;1251;76775;-57
2023/10/20 11:45:45;;;;;;;7.00;3.10;;;;;;;18.47;100.00;99509.77;109450;1253;66070;-56
2023/10/20 11:48:12;;;;;;;14.00;6.20;;;;;;;18.45;100.00;99510.33;109450;1253;74815;-57
2023/10/20 11:50:40;;;;;;;13.40;4.20;;;;;;;18.41;100.00;99504.86;109428;1253;61986;-57
2023/10/20 11:53:08;;;;;;;4.90;2.20;;;;;;;18.39;100.00;99503.73;109472;1252;62776;-56